Amma, West Virginia
Current Conditions -  °F | °C
As of 12:54 AM on Wednesday 22 Oct 2014 (Local Time) from KCRW Reporting Station
Overcast Overcast  
Wind Chill: 44°   Ceiling: 4700
Heat Index: 47°   Visibility: 10mi
Dew Point: 43°   Wind: 7mph
Humidity: 86%   Direction: 310°NW
Pressure: 30.09"   Gusts: NA
Location:  38.57°N, 81.27°W
Report Text: KCRW 220454Z 31006KT 10SM OVC047 08/06 A3009 RMK AO2 SLP191 T00830061 401280083
Loading
Personal Weather Stations






























Interactive Weather Map
Tropical Storm Tracking
New forecast layout! Learn more

10-Day Weather Forecast

Advertisements
Track Severe Weather on mobile